Time;durP1;ratioP1;P1;durP2;ratioP2;P2;SDS_P1;SDS_P2;PMS_P1;PMS_P2;Temp;Humidity;BMP_temperature;BMP_pressure;BME280_temperature;BME280_humidity;BME280_pressure;Samples;Min_cycle;Max_cycle;Signal;HPM_P1;HPM_P2
2022/07/26 00:00:39;;;;;;;5.22;2.65;;;;;;;;;;2090152;28;20537;-61
2022/07/26 00:01:39;;;;;;;3.58;2.28;;;;;;;;;;2094274;28;20187;-58
2022/07/26 00:02:40;;;;;;;3.10;2.10;;;;;;;;;;2089763;28;20187;-59
2022/07/26 00:03:40;;;;;;;4.97;2.85;;;;;;;;;;2090157;28;20191;-59
2022/07/26 00:04:41;;;;;;;7.43;2.97;;;;;;;;;;2088960;28;20199;-61
2022/07/26 00:05:42;;;;;;;4.40;1.85;;;;;;;;;;2090040;28;20203;-60
2022/07/26 00:06:42;;;;;;;4.57;2.42;;;;;;;;;;2089879;28;20258;-57
2022/07/26 00:07:43;;;;;;;5.22;2.42;;;;;;;;;;2090219;28;20646;-59
2022/07/26 00:08:43;;;;;;;4.15;2.30;;;;;;;;;;2080928;28;20184;-59
2022/07/26 00:09:44;;;;;;;6.05;2.38;;;;;;;;;;2081262;28;20171;-60
2022/07/26 00:10:47;;;;;;;5.10;2.22;;;;;;;;;;2089929;28;20295;-62
2022/07/26 00:11:47;;;;;;;5.15;2.55;;;;;;;;;;2090320;28;20170;-61
2022/07/26 00:12:47;;;;;;;5.45;2.60;;;;;;;;;;2090086;28;20606;-60
2022/07/26 00:13:48;;;;;;;3.40;2.03;;;;;;;;;;2089724;28;20333;-59
2022/07/26 00:14:48;;;;;;;7.15;2.42;;;;;;;;;;2100298;22;20234;-67
2022/07/26 00:15:48;;;;;;;5.07;2.05;;;;;;;;;;2088134;28;20217;-65
2022/07/26 00:16:49;;;;;;;5.25;3.05;;;;;;;;;;2090088;28;20170;-64
2022/07/26 00:17:49;;;;;;;6.75;2.45;;;;;;;;;;2083560;28;20227;-66
2022/07/26 00:18:49;;;;;;;2.85;2.28;;;;;;;;;;2085813;28;20650;-66
2022/07/26 00:19:50;;;;;;;6.25;2.58;;;;;;;;;;2091212;28;20191;-65
2022/07/26 00:20:50;;;;;;;6.05;2.63;;;;;;;;;;2091516;28;20199;-64
2022/07/26 00:22:32;;;;;;;3.97;2.70;;;;;;;;;;2091682;28;20164;-64
2022/07/26 00:23:11;;;;;;;7.30;2.53;;;;;;;;;;2088513;28;20197;-65
2022/07/26 00:24:12;;;;;;;5.28;2.40;;;;;;;;;;2089488;28;20212;-64
2022/07/26 00:25:12;;;;;;;4.40;2.42;;;;;;;;;;2090845;28;20191;-65
2022/07/26 00:26:12;;;;;;;4.88;2.45;;;;;;;;;;2087711;28;20201;-69
2022/07/26 00:27:12;;;;;;;3.92;3.08;;;;;;;;;;2089609;28;20273;-66
2022/07/26 00:28:13;;;;;;;3.53;2.15;;;;;;;;;;2089554;28;20171;-63
2022/07/26 00:29:13;;;;;;;5.07;2.53;;;;;;;;;;2081651;28;20595;-65
2022/07/26 00:30:14;;;;;;;3.60;2.20;;;;;;;;;;2089802;28;20164;-68
2022/07/26 00:31:14;;;;;;;8.07;2.65;;;;;;;;;;2090589;28;20238;-64
2022/07/26 00:32:14;;;;;;;6.72;2.65;;;;;;;;;;2086590;28;20250;-64
2022/07/26 00:33:15;;;;;;;5.00;2.60;;;;;;;;;;2089502;28;20175;-64
2022/07/26 00:34:15;;;;;;;8.23;2.80;;;;;;;;;;2085724;28;20171;-64
2022/07/26 00:35:15;;;;;;;4.53;2.47;;;;;;;;;;2086902;28;20187;-65
2022/07/26 00:36:16;;;;;;;6.28;2.92;;;;;;;;;;2090052;28;20257;-64
2022/07/26 00:37:16;;;;;;;5.65;3.00;;;;;;;;;;2081267;28;20180;-64
2022/07/26 00:38:17;;;;;;;6.05;3.05;;;;;;;;;;2081353;28;20295;-65
2022/07/26 00:39:17;;;;;;;7.97;2.90;;;;;;;;;;2080819;28;20259;-64
2022/07/26 00:40:17;;;;;;;6.68;2.90;;;;;;;;;;2081194;28;20176;-64
2022/07/26 00:41:18;;;;;;;4.85;2.53;;;;;;;;;;2081238;28;20161;-66
2022/07/26 00:42:18;;;;;;;6.00;2.83;;;;;;;;;;2081327;28;20211;-65
2022/07/26 00:43:18;;;;;;;5.03;2.60;;;;;;;;;;2089760;28;20175;-65
2022/07/26 00:44:19;;;;;;;7.05;2.30;;;;;;;;;;2089024;28;20210;-64
2022/07/26 00:45:20;;;;;;;4.85;2.58;;;;;;;;;;2082067;28;20194;-66
2022/07/26 00:46:20;;;;;;;5.22;2.35;;;;;;;;;;2073062;28;20172;-66
2022/07/26 00:47:21;;;;;;;5.85;3.35;;;;;;;;;;2081407;28;20181;-65
2022/07/26 00:48:21;;;;;;;6.15;2.63;;;;;;;;;;2090083;28;20168;-65
2022/07/26 00:49:21;;;;;;;8.05;2.80;;;;;;;;;;2086754;28;20271;-66
2022/07/26 00:50:22;;;;;;;11.07;2.83;;;;;;;;;;2089586;28;20226;-67
2022/07/26 00:51:22;;;;;;;5.25;2.80;;;;;;;;;;2090244;28;20655;-65
2022/07/26 00:52:23;;;;;;;6.82;2.65;;;;;;;;;;2089798;28;20636;-65
2022/07/26 00:53:23;;;;;;;4.93;3.08;;;;;;;;;;2089990;28;20217;-62
2022/07/26 00:54:23;;;;;;;6.57;3.10;;;;;;;;;;2088855;28;20171;-64
2022/07/26 00:55:24;;;;;;;3.88;2.03;;;;;;;;;;2089955;28;20164;-67
2022/07/26 00:56:24;;;;;;;6.50;3.00;;;;;;;;;;2089614;28;20203;-63
2022/07/26 00:57:25;;;;;;;8.50;3.08;;;;;;;;;;2090048;28;20170;-65
2022/07/26 00:58:25;;;;;;;8.38;3.08;;;;;;;;;;2089750;28;20864;-66
2022/07/26 00:59:25;;;;;;;6.50;3.10;;;;;;;;;;2077215;28;20235;-65
2022/07/26 01:00:26;;;;;;;6.88;2.75;;;;;;;;;;2073090;28;20173;-62
2022/07/26 01:01:27;;;;;;;6.18;3.30;;;;;;;;;;2082776;28;20541;-64
2022/07/26 01:02:27;;;;;;;4.93;2.67;;;;;;;;;;2089940;28;20176;-65
2022/07/26 01:03:28;;;;;;;7.35;2.65;;;;;;;;;;2089763;28;20171;-64
2022/07/26 01:04:28;;;;;;;6.10;3.20;;;;;;;;;;2088718;28;20167;-64
2022/07/26 01:05:29;;;;;;;7.45;2.42;;;;;;;;;;2089921;28;20258;-64
2022/07/26 01:06:29;;;;;;;7.35;3.00;;;;;;;;;;2081924;28;20169;-62
2022/07/26 01:07:30;;;;;;;6.45;3.00;;;;;;;;;;2089197;28;20175;-64
2022/07/26 01:08:30;;;;;;;3.05;2.70;;;;;;;;;;2081591;28;20172;-66
2022/07/26 01:09:30;;;;;;;7.72;2.95;;;;;;;;;;2073325;28;20592;-64
2022/07/26 01:10:31;;;;;;;4.63;2.88;;;;;;;;;;2081796;28;20176;-64
2022/07/26 01:11:31;;;;;;;4.97;2.58;;;;;;;;;;2081852;28;20173;-64
2022/07/26 01:12:31;;;;;;;6.95;3.10;;;;;;;;;;2073626;28;20215;-65
2022/07/26 01:13:33;;;;;;;6.95;2.97;;;;;;;;;;2073240;28;20208;-64
2022/07/26 01:14:33;;;;;;;4.38;2.70;;;;;;;;;;2088922;28;20180;-65
2022/07/26 01:15:33;;;;;;;10.52;2.75;;;;;;;;;;2081348;28;20207;-63
2022/07/26 01:16:34;;;;;;;7.78;3.10;;;;;;;;;;2081488;28;20187;-64
2022/07/26 01:17:34;;;;;;;5.22;2.72;;;;;;;;;;2080939;28;20234;-65
2022/07/26 01:18:34;;;;;;;6.35;3.22;;;;;;;;;;2081213;28;20270;-64
2022/07/26 01:19:35;;;;;;;5.05;3.17;;;;;;;;;;2080360;28;20715;-65
2022/07/26 01:20:35;;;;;;;10.02;3.08;;;;;;;;;;2081379;28;20632;-65
2022/07/26 01:21:36;;;;;;;6.18;2.70;;;;;;;;;;2089992;28;20630;-65
2022/07/26 01:22:36;;;;;;;4.55;2.92;;;;;;;;;;2089945;28;20611;-64
2022/07/26 01:23:37;;;;;;;6.22;2.80;;;;;;;;;;2086823;28;20201;-65
2022/07/26 01:24:37;;;;;;;8.73;3.00;;;;;;;;;;2089102;28;20187;-65
2022/07/26 01:25:38;;;;;;;5.78;2.80;;;;;;;;;;2090168;28;20190;-64
2022/07/26 01:26:38;;;;;;;5.85;3.08;;;;;;;;;;2090356;28;20186;-64
2022/07/26 01:27:39;;;;;;;8.30;3.00;;;;;;;;;;2090211;28;20187;-65
2022/07/26 01:28:39;;;;;;;6.68;3.13;;;;;;;;;;2089808;28;20242;-64
2022/07/26 01:29:40;;;;;;;6.55;2.90;;;;;;;;;;2089931;28;20644;-64
2022/07/26 01:30:40;;;;;;;7.85;2.75;;;;;;;;;;2089812;28;20176;-65
2022/07/26 01:31:40;;;;;;;5.00;2.60;;;;;;;;;;2087844;28;20270;-63
2022/07/26 01:32:41;;;;;;;7.05;2.90;;;;;;;;;;2089883;28;20203;-64
2022/07/26 01:33:41;;;;;;;7.50;3.13;;;;;;;;;;2089380;28;20207;-64
2022/07/26 01:34:41;;;;;;;6.82;3.30;;;;;;;;;;2079830;28;20204;-63
2022/07/26 01:35:42;;;;;;;9.52;3.30;;;;;;;;;;2080455;28;20444;-63
2022/07/26 01:36:42;;;;;;;7.10;2.97;;;;;;;;;;2080863;28;20202;-64
2022/07/26 01:37:42;;;;;;;8.88;3.03;;;;;;;;;;2080791;28;20183;-65
2022/07/26 01:38:43;;;;;;;5.07;2.65;;;;;;;;;;2089276;28;20664;-64
2022/07/26 01:39:44;;;;;;;5.63;3.03;;;;;;;;;;2089633;28;20180;-64
2022/07/26 01:40:44;;;;;;;9.77;3.53;;;;;;;;;;2080438;28;20180;-65
2022/07/26 01:41:45;;;;;;;7.93;2.67;;;;;;;;;;2080972;28;20675;-64
2022/07/26 01:42:45;;;;;;;4.53;3.08;;;;;;;;;;2080782;28;20183;-64
2022/07/26 01:43:45;;;;;;;6.63;3.13;;;;;;;;;;2080563;28;20172;-66
2022/07/26 01:44:46;;;;;;;4.85;2.83;;;;;;;;;;2079877;28;20869;-63
2022/07/26 01:45:46;;;;;;;10.80;3.33;;;;;;;;;;2080865;28;20172;-65
2022/07/26 01:46:46;;;;;;;5.57;3.25;;;;;;;;;;2089503;28;20648;-64
2022/07/26 01:47:48;;;;;;;6.22;3.08;;;;;;;;;;2080937;28;20180;-67
2022/07/26 01:48:49;;;;;;;4.07;3.00;;;;;;;;;;2080536;28;20169;-65
2022/07/26 01:49:50;;;;;;;5.80;3.30;;;;;;;;;;2089481;28;20259;-65
2022/07/26 01:50:50;;;;;;;8.30;2.83;;;;;;;;;;2089436;28;20550;-64
2022/07/26 01:51:50;;;;;;;11.15;3.42;;;;;;;;;;2089624;28;20221;-66
2022/07/26 01:52:51;;;;;;;4.50;2.78;;;;;;;;;;2089731;28;20174;-66
2022/07/26 01:53:51;;;;;;;3.28;2.90;;;;;;;;;;2089302;28;20552;-62
2022/07/26 01:54:52;;;;;;;6.28;2.72;;;;;;;;;;2090602;28;20849;-63
2022/07/26 01:55:52;;;;;;;8.73;3.00;;;;;;;;;;2091416;28;20222;-63
2022/07/26 01:56:52;;;;;;;6.22;3.17;;;;;;;;;;2082421;28;20172;-63
2022/07/26 01:57:53;;;;;;;7.97;2.97;;;;;;;;;;2082540;28;20164;-63
2022/07/26 01:58:54;;;;;;;8.05;3.50;;;;;;;;;;2088784;28;20521;-66
2022/07/26 01:59:54;;;;;;;6.75;3.00;;;;;;;;;;2087477;28;20171;-63
2022/07/26 02:00:54;;;;;;;6.45;2.67;;;;;;;;;;2089942;28;20771;-64
2022/07/26 02:01:55;;;;;;;10.48;3.50;;;;;;;;;;2091905;28;20180;-64
2022/07/26 02:02:55;;;;;;;8.23;3.10;;;;;;;;;;2092690;28;20188;-65
2022/07/26 02:03:55;;;;;;;5.85;3.40;;;;;;;;;;2090487;28;20203;-66
2022/07/26 02:04:58;;;;;;;5.15;2.78;;;;;;;;;;2090556;28;20194;-63
2022/07/26 02:05:59;;;;;;;6.60;3.10;;;;;;;;;;2091409;28;20213;-63
2022/07/26 02:06:59;;;;;;;11.68;3.30;;;;;;;;;;2090961;28;20172;-63
2022/07/26 02:08:00;;;;;;;15.50;3.50;;;;;;;;;;2082439;28;20251;-65
2022/07/26 02:09:00;;;;;;;9.15;2.97;;;;;;;;;;2074177;28;20204;-64
2022/07/26 02:10:00;;;;;;;6.88;3.30;;;;;;;;;;2081811;28;20669;-65
2022/07/26 02:11:01;;;;;;;6.65;3.33;;;;;;;;;;2091041;28;20266;-65
2022/07/26 02:12:01;;;;;;;4.88;2.72;;;;;;;;;;2091064;28;20179;-65
2022/07/26 02:13:02;;;;;;;4.90;3.30;;;;;;;;;;2090687;28;20659;-67
2022/07/26 02:14:02;;;;;;;10.20;3.35;;;;;;;;;;2090235;28;20191;-65
2022/07/26 02:15:03;;;;;;;5.95;3.67;;;;;;;;;;2090829;28;20691;-66
2022/07/26 02:16:04;;;;;;;5.95;3.25;;;;;;;;;;2091243;28;20162;-66
2022/07/26 02:17:05;;;;;;;8.52;3.55;;;;;;;;;;2091244;28;20160;-65
2022/07/26 02:18:05;;;;;;;6.60;3.42;;;;;;;;;;2091009;28;20180;-62
2022/07/26 02:19:06;;;;;;;6.28;2.85;;;;;;;;;;2090859;28;20179;-67
2022/07/26 02:20:07;;;;;;;6.93;3.33;;;;;;;;;;2090923;28;20175;-64
2022/07/26 02:21:08;;;;;;;7.60;3.13;;;;;;;;;;2089163;28;20270;-65
2022/07/26 02:22:09;;;;;;;8.00;3.55;;;;;;;;;;2087083;28;20163;-65
2022/07/26 02:23:09;;;;;;;8.20;3.28;;;;;;;;;;2090881;28;20768;-65
2022/07/26 02:24:09;;;;;;;8.90;3.17;;;;;;;;;;2089635;28;20175;-65
2022/07/26 02:25:10;;;;;;;7.50;3.33;;;;;;;;;;2094953;28;20198;-65
2022/07/26 02:26:10;;;;;;;9.80;3.45;;;;;;;;;;2096319;28;20171;-66
2022/07/26 02:27:10;;;;;;;8.38;3.30;;;;;;;;;;2091152;28;20168;-64
2022/07/26 02:28:11;;;;;;;8.13;3.47;;;;;;;;;;2090904;28;20168;-66
2022/07/26 02:29:11;;;;;;;5.22;3.08;;;;;;;;;;2091132;28;20181;-66
2022/07/26 02:30:12;;;;;;;6.97;3.40;;;;;;;;;;2090813;28;20180;-65
2022/07/26 02:31:12;;;;;;;8.15;3.13;;;;;;;;;;2082130;28;20196;-65
2022/07/26 02:32:13;;;;;;;5.15;3.45;;;;;;;;;;2086589;28;20712;-65
2022/07/26 02:33:13;;;;;;;6.40;3.40;;;;;;;;;;2090881;28;20183;-65
2022/07/26 02:34:14;;;;;;;6.30;2.95;;;;;;;;;;2089876;28;20570;-65
2022/07/26 02:35:14;;;;;;;7.40;3.53;;;;;;;;;;2090938;28;20596;-66
2022/07/26 02:36:14;;;;;;;9.15;3.25;;;;;;;;;;2090910;28;20662;-66
2022/07/26 02:37:15;;;;;;;12.02;3.70;;;;;;;;;;2090899;28;20176;-65
2022/07/26 02:38:15;;;;;;;14.02;3.60;;;;;;;;;;2090583;28;20206;-66
2022/07/26 02:39:15;;;;;;;8.85;3.42;;;;;;;;;;2091016;28;20246;-66
2022/07/26 02:40:16;;;;;;;10.70;3.85;;;;;;;;;;2081802;28;20164;-66
2022/07/26 02:41:16;;;;;;;10.13;3.63;;;;;;;;;;2074103;28;20648;-65
2022/07/26 02:42:16;;;;;;;7.25;3.70;;;;;;;;;;2085833;28;20215;-63
2022/07/26 02:43:17;;;;;;;7.43;3.72;;;;;;;;;;2091149;28;20168;-67
2022/07/26 02:44:17;;;;;;;9.07;4.05;;;;;;;;;;2090145;28;20177;-67
2022/07/26 02:45:17;;;;;;;7.43;3.38;;;;;;;;;;2091329;28;20188;-67
2022/07/26 02:46:18;;;;;;;12.75;3.83;;;;;;;;;;2090983;28;20243;-66
2022/07/26 02:47:18;;;;;;;10.55;4.22;;;;;;;;;;2091350;28;20171;-66
2022/07/26 02:48:18;;;;;;;7.10;3.60;;;;;;;;;;2082429;28;20165;-65
2022/07/26 02:49:19;;;;;;;10.10;3.47;;;;;;;;;;2082367;28;20206;-67
2022/07/26 02:50:20;;;;;;;6.38;3.60;;;;;;;;;;2082313;28;20271;-65
2022/07/26 02:51:21;;;;;;;8.48;3.88;;;;;;;;;;2082400;28;20168;-67
2022/07/26 02:52:21;;;;;;;9.52;3.72;;;;;;;;;;2091572;28;20810;-67
2022/07/26 02:53:21;;;;;;;7.93;3.20;;;;;;;;;;2091385;28;20174;-66
2022/07/26 02:54:22;;;;;;;7.97;3.45;;;;;;;;;;2090457;28;20675;-66
2022/07/26 02:55:23;;;;;;;6.53;4.18;;;;;;;;;;2091138;28;20658;-67
2022/07/26 02:56:23;;;;;;;11.68;4.15;;;;;;;;;;2091194;28;20205;-67
2022/07/26 02:57:23;;;;;;;7.50;3.67;;;;;;;;;;2091050;28;20278;-66
2022/07/26 02:58:25;;;;;;;8.38;3.70;;;;;;;;;;2091115;28;20660;-67
2022/07/26 02:59:25;;;;;;;9.82;3.92;;;;;;;;;;2087361;28;20164;-65
2022/07/26 03:00:26;;;;;;;8.27;3.85;;;;;;;;;;2086913;28;20171;-65
2022/07/26 03:01:26;;;;;;;8.52;3.38;;;;;;;;;;2091136;28;20172;-66
2022/07/26 03:02:26;;;;;;;10.90;3.78;;;;;;;;;;2091359;28;20168;-67
2022/07/26 03:03:27;;;;;;;13.15;4.05;;;;;;;;;;2091117;28;20171;-67
2022/07/26 03:04:27;;;;;;;8.10;3.47;;;;;;;;;;2089593;28;20640;-66
2022/07/26 03:05:27;;;;;;;10.23;3.63;;;;;;;;;;2090383;28;20176;-66
2022/07/26 03:06:28;;;;;;;11.35;4.30;;;;;;;;;;2086286;28;20173;-66
2022/07/26 03:07:28;;;;;;;10.98;3.92;;;;;;;;;;2090626;28;20827;-66
2022/07/26 03:08:28;;;;;;;6.90;3.30;;;;;;;;;;2075232;28;20196;-65
2022/07/26 03:09:29;;;;;;;5.00;3.13;;;;;;;;;;2082308;28;20259;-68
2022/07/26 03:10:29;;;;;;;6.80;3.67;;;;;;;;;;2090924;28;20666;-67
2022/07/26 03:11:29;;;;;;;10.13;4.47;;;;;;;;;;2082240;28;20168;-67
2022/07/26 03:12:30;;;;;;;11.60;3.78;;;;;;;;;;2082570;28;20188;-66
2022/07/26 03:13:30;;;;;;;10.23;4.07;;;;;;;;;;2090565;28;20170;-65
2022/07/26 03:14:30;;;;;;;12.32;4.05;;;;;;;;;;2089982;28;20820;-66
2022/07/26 03:15:31;;;;;;;6.28;3.80;;;;;;;;;;2091428;28;20152;-63
2022/07/26 03:16:31;;;;;;;7.00;3.92;;;;;;;;;;2090668;28;20563;-66
2022/07/26 03:17:31;;;;;;;10.85;3.45;;;;;;;;;;2090440;28;20202;-65
2022/07/26 03:18:32;;;;;;;11.05;4.20;;;;;;;;;;2090117;28;20171;-65
2022/07/26 03:19:32;;;;;;;9.55;3.92;;;;;;;;;;2090510;28;20179;-65
2022/07/26 03:20:32;;;;;;;6.88;3.38;;;;;;;;;;2090211;28;20754;-65
2022/07/26 03:21:33;;;;;;;6.45;3.85;;;;;;;;;;2088616;28;20199;-65
2022/07/26 03:22:33;;;;;;;7.07;4.00;;;;;;;;;;2065927;28;20192;-66
2022/07/26 03:23:33;;;;;;;8.93;4.10;;;;;;;;;;2081648;28;20251;-64
2022/07/26 03:24:34;;;;;;;6.65;3.80;;;;;;;;;;2089846;28;20202;-65
2022/07/26 03:25:34;;;;;;;7.90;3.95;;;;;;;;;;2090380;28;20187;-68
2022/07/26 03:26:34;;;;;;;8.00;3.67;;;;;;;;;;2090146;28;20218;-66
2022/07/26 03:27:35;;;;;;;9.82;3.90;;;;;;;;;;2084269;28;20641;-66
2022/07/26 03:28:35;;;;;;;9.25;4.03;;;;;;;;;;2082098;28;20272;-67
2022/07/26 03:29:36;;;;;;;9.13;4.30;;;;;;;;;;2090482;28;20179;-67
2022/07/26 03:30:36;;;;;;;7.25;4.05;;;;;;;;;;2090295;28;20222;-67
2022/07/26 03:31:37;;;;;;;10.68;4.10;;;;;;;;;;2090710;28;20198;-68
2022/07/26 03:32:37;;;;;;;9.75;4.22;;;;;;;;;;2090455;28;20172;-66
2022/07/26 03:33:38;;;;;;;7.07;3.88;;;;;;;;;;2081445;28;20184;-64
2022/07/26 03:34:38;;;;;;;7.97;4.28;;;;;;;;;;2080861;28;20196;-68
2022/07/26 03:35:38;;;;;;;7.70;3.67;;;;;;;;;;2090717;28;20171;-66
2022/07/26 03:36:39;;;;;;;15.45;4.13;;;;;;;;;;2090408;28;20203;-66
2022/07/26 03:37:39;;;;;;;8.57;3.90;;;;;;;;;;2090665;28;20221;-69
2022/07/26 03:38:39;;;;;;;7.25;3.80;;;;;;;;;;2081379;28;20165;-65
2022/07/26 03:39:40;;;;;;;8.20;4.20;;;;;;;;;;2073555;28;20331;-64
2022/07/26 03:40:40;;;;;;;8.40;4.05;;;;;;;;;;2064904;28;20591;-66
2022/07/26 03:41:40;;;;;;;8.48;3.65;;;;;;;;;;2073511;28;20165;-65
2022/07/26 03:42:41;;;;;;;7.15;4.15;;;;;;;;;;2090830;28;20167;-65
2022/07/26 03:43:41;;;;;;;13.63;5.00;;;;;;;;;;2090454;28;20183;-65
2022/07/26 03:44:41;;;;;;;8.52;4.22;;;;;;;;;;2089084;28;20225;-63
2022/07/26 03:45:42;;;;;;;6.88;3.92;;;;;;;;;;2083134;28;20180;-64
2022/07/26 03:46:42;;;;;;;9.63;4.00;;;;;;;;;;2072001;28;20177;-65
2022/07/26 03:47:42;;;;;;;6.72;3.42;;;;;;;;;;2081442;28;20342;-65
2022/07/26 03:48:43;;;;;;;6.15;4.07;;;;;;;;;;2092012;28;20483;-63
2022/07/26 03:49:43;;;;;;;7.10;3.80;;;;;;;;;;2091949;28;20666;-65
2022/07/26 03:50:43;;;;;;;8.15;4.35;;;;;;;;;;2083739;28;20676;-65
2022/07/26 03:51:44;;;;;;;7.55;4.00;;;;;;;;;;2086514;28;20305;-65
2022/07/26 03:52:44;;;;;;;4.57;3.38;;;;;;;;;;2087390;28;20566;-66
2022/07/26 03:53:44;;;;;;;8.93;3.70;;;;;;;;;;2088513;28;20199;-63
2022/07/26 03:54:45;;;;;;;7.45;3.53;;;;;;;;;;2094607;28;20239;-66
2022/07/26 03:57:04;;;;;;;13.05;4.60;;;;;;;;;;2084330;28;20227;-66
2022/07/26 03:58:04;;;;;;;10.40;4.47;;;;;;;;;;2090506;28;20191;-66
2022/07/26 03:59:06;;;;;;;7.78;4.13;;;;;;;;;;2081482;28;20641;-66
2022/07/26 04:00:07;;;;;;;7.45;3.63;;;;;;;;;;2081269;28;20262;-64
2022/07/26 04:01:07;;;;;;;5.60;3.47;;;;;;;;;;2089883;28;20172;-64
2022/07/26 04:02:08;;;;;;;9.30;4.20;;;;;;;;;;2090141;28;20171;-65
2022/07/26 04:03:08;;;;;;;7.55;3.75;;;;;;;;;;2090274;28;20167;-65
2022/07/26 04:04:09;;;;;;;13.05;4.32;;;;;;;;;;2089357;28;20616;-65
2022/07/26 04:05:09;;;;;;;9.23;4.05;;;;;;;;;;2088173;28;20238;-63
2022/07/26 04:06:10;;;;;;;8.50;3.53;;;;;;;;;;2090353;28;20171;-66
2022/07/26 04:07:10;;;;;;;5.03;3.80;;;;;;;;;;2090345;28;20698;-64
2022/07/26 04:08:11;;;;;;;4.40;3.58;;;;;;;;;;2088412;28;20160;-65
2022/07/26 04:09:11;;;;;;;7.18;4.18;;;;;;;;;;2082098;28;20176;-65
2022/07/26 04:10:12;;;;;;;10.57;4.25;;;;;;;;;;2090444;28;20171;-66
2022/07/26 04:11:12;;;;;;;9.20;3.70;;;;;;;;;;2090618;28;20175;-64
2022/07/26 04:12:13;;;;;;;6.38;3.67;;;;;;;;;;2089737;28;20183;-65
2022/07/26 04:13:13;;;;;;;9.23;4.07;;;;;;;;;;2090092;28;20187;-63
2022/07/26 04:14:15;;;;;;;8.90;3.50;;;;;;;;;;2086367;28;20261;-64
2022/07/26 04:15:15;;;;;;;9.50;3.47;;;;;;;;;;2081368;28;20188;-68
2022/07/26 04:16:16;;;;;;;6.93;3.67;;;;;;;;;;2081795;28;20160;-65
2022/07/26 04:17:16;;;;;;;7.00;4.25;;;;;;;;;;2064911;28;20186;-66
2022/07/26 04:18:16;;;;;;;7.88;3.85;;;;;;;;;;2067496;28;20169;-65
2022/07/26 04:19:17;;;;;;;7.40;4.00;;;;;;;;;;2081365;28;20218;-66
2022/07/26 04:20:17;;;;;;;7.50;3.85;;;;;;;;;;2090332;28;20202;-65
2022/07/26 04:21:17;;;;;;;4.60;3.83;;;;;;;;;;2090094;28;20226;-65
2022/07/26 04:22:18;;;;;;;8.43;4.22;;;;;;;;;;2090237;28;20176;-64
2022/07/26 04:23:18;;;;;;;6.97;3.97;;;;;;;;;;2075516;28;20268;-66
2022/07/26 04:24:18;;;;;;;5.88;3.38;;;;;;;;;;2072347;28;20779;-65
2022/07/26 04:25:19;;;;;;;7.00;4.03;;;;;;;;;;2081950;28;20382;-65
2022/07/26 04:26:20;;;;;;;10.20;3.78;;;;;;;;;;2072971;28;20165;-62
2022/07/26 04:27:20;;;;;;;4.68;3.90;;;;;;;;;;2072929;28;20181;-63
2022/07/26 04:28:20;;;;;;;7.45;3.80;;;;;;;;;;2072941;28;20173;-62
2022/07/26 04:29:21;;;;;;;6.60;3.80;;;;;;;;;;2081861;28;20176;-65
2022/07/26 04:30:21;;;;;;;9.30;4.07;;;;;;;;;;2083362;28;20171;-62
2022/07/26 04:31:22;;;;;;;5.70;4.03;;;;;;;;;;2090141;28;20254;-64
2022/07/26 04:32:22;;;;;;;6.82;4.10;;;;;;;;;;2089944;28;20533;-63
2022/07/26 04:33:22;;;;;;;5.68;4.00;;;;;;;;;;2089845;28;20171;-65
2022/07/26 04:34:23;;;;;;;9.02;3.88;;;;;;;;;;2089009;28;20190;-63
2022/07/26 04:35:24;;;;;;;7.55;3.60;;;;;;;;;;2090185;28;20721;-64
2022/07/26 04:36:25;;;;;;;8.82;4.15;;;;;;;;;;2081281;28;20188;-62
2022/07/26 04:37:25;;;;;;;9.35;4.00;;;;;;;;;;2081504;28;20172;-66
2022/07/26 04:38:25;;;;;;;7.63;4.28;;;;;;;;;;2089942;28;20619;-64
2022/07/26 04:39:26;;;;;;;8.13;4.00;;;;;;;;;;2090078;28;20179;-64
2022/07/26 04:40:27;;;;;;;8.35;4.20;;;;;;;;;;2090047;28;20547;-64
2022/07/26 04:41:27;;;;;;;7.20;3.85;;;;;;;;;;2090147;28;20568;-64
2022/07/26 04:42:27;;;;;;;8.27;3.47;;;;;;;;;;2086461;28;20181;-66
2022/07/26 04:43:28;;;;;;;7.57;4.32;;;;;;;;;;2083700;28;20187;-64
2022/07/26 04:44:28;;;;;;;8.73;4.25;;;;;;;;;;2088819;28;20250;-64
2022/07/26 04:45:28;;;;;;;8.45;4.38;;;;;;;;;;2090042;28;20168;-62
2022/07/26 04:46:29;;;;;;;6.20;3.92;;;;;;;;;;2090179;28;20711;-65
2022/07/26 04:47:29;;;;;;;7.78;4.20;;;;;;;;;;2090341;28;20231;-64
2022/07/26 04:48:30;;;;;;;10.73;4.10;;;;;;;;;;2080613;28;20172;-64
2022/07/26 04:49:30;;;;;;;9.95;3.97;;;;;;;;;;2088799;28;20572;-64
2022/07/26 04:50:30;;;;;;;8.80;4.32;;;;;;;;;;2083850;28;20180;-62
2022/07/26 04:51:31;;;;;;;9.20;4.13;;;;;;;;;;2081025;28;20208;-65
2022/07/26 04:52:31;;;;;;;7.93;4.30;;;;;;;;;;2081129;28;20212;-64
2022/07/26 04:53:31;;;;;;;9.20;4.05;;;;;;;;;;2081147;28;20168;-63
2022/07/26 04:54:32;;;;;;;9.30;4.80;;;;;;;;;;2088685;28;20171;-65
2022/07/26 04:55:32;;;;;;;8.20;4.05;;;;;;;;;;2088859;28;20175;-65
2022/07/26 04:56:48;;;;;;;8.32;3.75;;;;;;;;;;2065208;28;20248;-63
2022/07/26 04:57:49;;;;;;;6.65;4.10;;;;;;;;;;2082313;28;20187;-64
2022/07/26 04:58:49;;;;;;;8.68;4.38;;;;;;;;;;2080295;28;20251;-61
2022/07/26 04:59:50;;;;;;;6.50;3.97;;;;;;;;;;2082949;28;20230;-66
2022/07/26 05:00:50;;;;;;;7.45;4.20;;;;;;;;;;2086244;28;20170;-64
2022/07/26 05:01:50;;;;;;;12.93;4.97;;;;;;;;;;2083136;28;20707;-63
2022/07/26 05:02:52;;;;;;;8.18;4.18;;;;;;;;;;2089978;28;20651;-62
2022/07/26 05:03:52;;;;;;;8.80;3.90;;;;;;;;;;2089681;28;20254;-60
2022/07/26 05:04:53;;;;;;;9.52;4.55;;;;;;;;;;2089424;28;20199;-63
2022/07/26 05:05:53;;;;;;;10.00;4.47;;;;;;;;;;2090141;28;20274;-65
2022/07/26 05:06:53;;;;;;;6.13;4.05;;;;;;;;;;2090132;28;20175;-63
2022/07/26 05:07:55;;;;;;;7.15;4.10;;;;;;;;;;2089586;28;20632;-65
2022/07/26 05:08:55;;;;;;;5.25;3.78;;;;;;;;;;2089648;28;20727;-64
2022/07/26 05:09:55;;;;;;;5.10;3.78;;;;;;;;;;2090043;28;20247;-63
2022/07/26 05:10:56;;;;;;;6.82;3.92;;;;;;;;;;2090081;28;20172;-62
2022/07/26 05:11:56;;;;;;;6.28;4.00;;;;;;;;;;2089916;28;20171;-65
2022/07/26 05:12:56;;;;;;;6.80;3.78;;;;;;;;;;2089667;28;20195;-65
2022/07/26 05:13:57;;;;;;;8.52;4.30;;;;;;;;;;2089183;28;20679;-66
2022/07/26 05:14:57;;;;;;;8.32;4.20;;;;;;;;;;2089740;28;20203;-64
2022/07/26 05:15:58;;;;;;;6.22;3.97;;;;;;;;;;2089408;28;20168;-67
2022/07/26 05:16:58;;;;;;;11.13;4.15;;;;;;;;;;2089715;28;20648;-64
2022/07/26 05:18:03;;;;;;;8.75;3.72;;;;;;;;;;2081432;28;20180;-65
2022/07/26 05:19:03;;;;;;;10.93;3.85;;;;;;;;;;2082223;28;20226;-64
2022/07/26 05:20:05;;;;;;;7.22;4.10;;;;;;;;;;2089606;28;20237;-60
2022/07/26 05:21:05;;;;;;;10.15;4.00;;;;;;;;;;2081549;28;20168;-67
2022/07/26 05:22:06;;;;;;;12.88;3.88;;;;;;;;;;2081437;28;20191;-64
2022/07/26 05:23:06;;;;;;;10.70;4.63;;;;;;;;;;2090211;28;20175;-64
2022/07/26 05:24:07;;;;;;;7.07;3.95;;;;;;;;;;2089340;28;20190;-64
2022/07/26 05:25:07;;;;;;;10.18;4.38;;;;;;;;;;2090152;28;20191;-65
2022/07/26 05:26:09;;;;;;;12.13;4.63;;;;;;;;;;2090059;28;20171;-63
2022/07/26 05:27:09;;;;;;;6.22;3.75;;;;;;;;;;2097513;28;20178;-66
2022/07/26 05:28:10;;;;;;;6.60;4.03;;;;;;;;;;2097301;28;20175;-65
2022/07/26 05:29:10;;;;;;;6.03;3.95;;;;;;;;;;2089160;28;20244;-64
2022/07/26 05:30:11;;;;;;;13.10;4.30;;;;;;;;;;2089736;28;20179;-67
2022/07/26 05:31:11;;;;;;;8.95;4.47;;;;;;;;;;2089916;28;20573;-63
2022/07/26 05:32:11;;;;;;;10.52;4.13;;;;;;;;;;2089773;28;20187;-66
2022/07/26 05:33:12;;;;;;;7.90;4.50;;;;;;;;;;2080806;28;20736;-65
2022/07/26 05:34:13;;;;;;;10.68;4.82;;;;;;;;;;2080086;28;20261;-66
2022/07/26 05:35:13;;;;;;;12.40;4.50;;;;;;;;;;2072792;28;20196;-64
2022/07/26 05:36:14;;;;;;;8.82;3.78;;;;;;;;;;2072855;28;20596;-65
2022/07/26 05:37:14;;;;;;;5.97;3.85;;;;;;;;;;2089716;28;20259;-64
2022/07/26 05:38:15;;;;;;;9.27;3.85;;;;;;;;;;2089616;28;20164;-65
2022/07/26 05:39:15;;;;;;;13.52;4.72;;;;;;;;;;2089850;28;20221;-64
2022/07/26 05:40:16;;;;;;;6.75;3.80;;;;;;;;;;2089795;28;20185;-65
2022/07/26 05:41:16;;;;;;;8.30;4.20;;;;;;;;;;2089656;28;20168;-64
2022/07/26 05:42:16;;;;;;;6.00;4.10;;;;;;;;;;2097391;28;20170;-66
2022/07/26 05:43:17;;;;;;;7.20;4.55;;;;;;;;;;2088915;28;20583;-64
2022/07/26 05:44:18;;;;;;;9.38;5.07;;;;;;;;;;2080271;28;20186;-64
2022/07/26 05:45:18;;;;;;;7.57;4.43;;;;;;;;;;2097231;28;20250;-65
2022/07/26 05:46:19;;;;;;;12.13;4.72;;;;;;;;;;2089212;28;20217;-62
2022/07/26 05:47:19;;;;;;;6.47;4.40;;;;;;;;;;2081111;28;20195;-64
2022/07/26 05:48:19;;;;;;;9.95;4.53;;;;;;;;;;2081128;28;20608;-65
2022/07/26 05:49:20;;;;;;;9.48;4.55;;;;;;;;;;2089840;28;20202;-64
2022/07/26 05:50:20;;;;;;;8.90;4.35;;;;;;;;;;2090071;28;20179;-64
2022/07/26 05:51:20;;;;;;;8.68;4.93;;;;;;;;;;2081189;28;20167;-66
2022/07/26 05:52:21;;;;;;;6.93;4.10;;;;;;;;;;2081220;28;20263;-64
2022/07/26 05:53:22;;;;;;;8.63;4.68;;;;;;;;;;2089874;28;20197;-64
2022/07/26 05:54:22;;;;;;;10.23;4.72;;;;;;;;;;2088894;28;20225;-64
2022/07/26 05:55:22;;;;;;;10.30;4.90;;;;;;;;;;2090016;28;20176;-65
2022/07/26 05:56:23;;;;;;;8.50;4.72;;;;;;;;;;2090090;28;20171;-64
2022/07/26 05:57:23;;;;;;;10.95;5.13;;;;;;;;;;2089642;28;20168;-65
2022/07/26 05:58:23;;;;;;;9.07;5.05;;;;;;;;;;2089803;28;20188;-67
2022/07/26 05:59:24;;;;;;;8.38;4.85;;;;;;;;;;2081246;28;20176;-64
2022/07/26 06:00:24;;;;;;;11.88;4.65;;;;;;;;;;2080934;28;20187;-65
2022/07/26 06:01:24;;;;;;;8.68;4.13;;;;;;;;;;2089692;28;20172;-63
2022/07/26 06:02:25;;;;;;;7.30;4.75;;;;;;;;;;2089822;28;20172;-63
2022/07/26 06:03:25;;;;;;;6.82;3.90;;;;;;;;;;2080842;28;20179;-64